createdAt,value
2018-09-15T00:00:56.578Z,17.33
2018-09-15T00:03:27.059Z,15.30
2018-09-15T00:05:56.950Z,21.10
2018-09-15T00:08:27.212Z,18.90
2018-09-15T00:10:57.352Z,16.53
2018-09-15T00:13:27.347Z,15.70
2018-09-15T00:15:57.245Z,19.80
2018-09-15T00:18:27.811Z,13.47
2018-09-15T00:20:58.095Z,16.27
2018-09-15T00:23:28.324Z,15.83
2018-09-15T00:25:58.252Z,18.77
2018-09-15T00:28:28.070Z,21.20
2018-09-15T00:30:59.622Z,22.80
2018-09-15T00:33:29.441Z,21.23
2018-09-15T00:35:59.274Z,17.17
2018-09-15T00:38:29.888Z,17.77
2018-09-15T00:41:00.085Z,19.50
2018-09-15T00:43:29.982Z,15.37
2018-09-15T00:46:00.441Z,17.20
2018-09-15T00:48:30.272Z,16.47
2018-09-15T00:51:00.519Z,13.87
2018-09-15T00:53:30.450Z,17.77
2018-09-15T00:56:00.824Z,12.50
2018-09-15T00:58:31.030Z,14.10
2018-09-15T01:01:00.965Z,16.10
2018-09-15T01:03:30.838Z,11.33
2018-09-15T01:06:01.167Z,12.60
2018-09-15T01:08:31.063Z,14.10
2018-09-15T01:11:01.276Z,13.37
2018-09-15T01:13:31.830Z,13.73
2018-09-15T01:16:01.624Z,12.03
2018-09-15T01:18:31.381Z,15.83
2018-09-15T01:21:01.912Z,13.80
2018-09-15T01:23:32.353Z,11.80
2018-09-15T01:26:02.204Z,11.80
2018-09-15T01:28:32.257Z,12.07
2018-09-15T01:31:02.542Z,12.17
2018-09-15T01:33:32.355Z,13.47
2018-09-15T01:36:02.069Z,11.73
2018-09-15T01:38:31.869Z,10.07
2018-09-15T01:41:01.644Z,10.63
2018-09-15T01:43:31.619Z,12.27
2018-09-15T01:46:01.618Z,10.33
2018-09-15T01:48:31.320Z,9.63
2018-09-15T01:51:01.068Z,9.87
2018-09-15T01:53:30.780Z,11.30
2018-09-15T01:56:00.534Z,10.97
2018-09-15T01:58:30.587Z,11.47
2018-09-15T02:01:00.428Z,9.47
2018-09-15T02:03:30.282Z,10.13
2018-09-15T02:06:00.015Z,6.83
2018-09-15T02:08:29.728Z,8.47
2018-09-15T02:10:59.500Z,8.17
2018-09-15T02:13:29.386Z,11.23
2018-09-15T02:15:59.243Z,10.47
2018-09-15T02:18:29.095Z,18.23
2018-09-15T02:20:59.150Z,16.60
2018-09-15T02:23:29.035Z,12.63
2018-09-15T02:25:58.773Z,16.37
2018-09-15T02:28:28.964Z,11.63
2018-09-15T02:30:58.770Z,11.90
2018-09-15T02:33:28.483Z,11.00
2018-09-15T02:35:58.328Z,12.23
2018-09-15T02:38:28.048Z,10.00
2018-09-15T02:40:57.748Z,11.20
2018-09-15T02:43:27.490Z,10.07
2018-09-15T02:45:57.231Z,8.43
2018-09-15T02:48:27.010Z,10.57
2018-09-15T02:50:56.742Z,9.87
2018-09-15T02:53:26.597Z,11.90
2018-09-15T02:55:56.400Z,11.43
2018-09-15T02:58:26.323Z,14.60
2018-09-15T03:00:56.078Z,14.37
2018-09-15T03:03:25.958Z,19.47
2018-09-15T03:05:55.762Z,16.23
2018-09-15T03:08:25.626Z,13.87
2018-09-15T03:10:55.414Z,15.60
2018-09-15T03:13:25.378Z,11.60
2018-09-15T03:15:55.244Z,12.30
2018-09-15T03:18:24.978Z,9.37
2018-09-15T03:20:54.678Z,11.27
2018-09-15T03:23:25.116Z,11.50
2018-09-15T03:25:54.900Z,12.40
2018-09-15T03:28:24.668Z,14.80
2018-09-15T03:30:55.140Z,14.87
2018-09-15T03:33:24.867Z,13.10
2018-09-15T03:35:54.550Z,11.37
2018-09-15T03:38:24.322Z,9.87
2018-09-15T03:40:54.016Z,9.73
2018-09-15T03:43:23.708Z,9.57
2018-09-15T03:45:53.393Z,10.33
2018-09-15T03:48:23.135Z,10.47
2018-09-15T03:50:52.812Z,9.37
2018-09-15T03:53:22.483Z,9.23
2018-09-15T03:55:52.218Z,10.73
2018-09-15T03:58:22.936Z,9.50
2018-09-15T04:00:53.849Z,9.00
2018-09-15T04:03:24.075Z,9.30
2018-09-15T04:05:53.810Z,10.23
2018-09-15T04:08:23.484Z,6.97
2018-09-15T04:10:53.241Z,9.10
2018-09-15T04:13:22.896Z,8.63
2018-09-15T04:15:52.580Z,9.90
2018-09-15T04:18:22.292Z,9.23
2018-09-15T04:20:52.000Z,10.67
2018-09-15T04:23:21.695Z,12.83
2018-09-15T04:25:51.390Z,10.33
2018-09-15T04:28:21.128Z,9.60
2018-09-15T04:30:50.826Z,9.27
2018-09-15T04:33:20.522Z,11.50
2018-09-15T04:35:50.194Z,10.53
2018-09-15T04:38:19.906Z,13.23
2018-09-15T04:40:49.650Z,12.03
2018-09-15T04:43:19.416Z,15.13
2018-09-15T04:45:49.458Z,13.07
2018-09-15T04:48:19.581Z,13.87
2018-09-15T04:50:50.781Z,15.60
2018-09-15T04:53:21.683Z,14.93
2018-09-15T04:55:52.290Z,16.80
2018-09-15T04:58:24.379Z,14.57
2018-09-15T05:00:55.056Z,12.00
2018-09-15T05:03:26.339Z,14.83
2018-09-15T05:05:57.065Z,9.70
2018-09-15T05:08:28.659Z,11.03
2018-09-15T05:11:00.101Z,15.87
2018-09-15T05:13:31.182Z,14.10
2018-09-15T05:16:01.634Z,13.20
2018-09-15T05:18:33.705Z,14.63
2018-09-15T05:21:05.153Z,20.97
2018-09-15T05:26:15.138Z,14.80
2018-09-15T05:28:48.607Z,16.93
2018-09-15T05:31:20.242Z,13.30
2018-09-15T05:33:52.039Z,11.23
2018-09-15T05:36:30.740Z,10.73
2018-09-15T05:39:01.234Z,10.03
2018-09-15T05:41:37.124Z,10.47
2018-09-15T05:44:08.398Z,11.10
2018-09-15T05:46:39.363Z,14.60
2018-09-15T05:49:11.301Z,15.10
2018-09-15T05:51:42.683Z,20.80
2018-09-15T05:54:12.745Z,15.23
2018-09-15T05:56:42.424Z,17.20
2018-09-15T05:59:12.202Z,15.70
2018-09-15T06:01:42.314Z,11.37
2018-09-15T06:04:12.024Z,14.50
2018-09-15T06:06:42.717Z,16.33
2018-09-15T06:09:13.159Z,13.43
2018-09-15T06:11:43.347Z,13.80
2018-09-15T06:14:13.118Z,10.53
2018-09-15T06:16:42.914Z,10.63
2018-09-15T06:19:12.691Z,10.27
2018-09-15T06:21:42.477Z,10.17
2018-09-15T06:24:12.221Z,10.17
2018-09-15T06:26:42.296Z,10.90
2018-09-15T06:29:12.138Z,10.03
2018-09-15T06:31:42.030Z,13.90
2018-09-15T06:34:12.029Z,9.83
2018-09-15T06:36:41.772Z,8.73
2018-09-15T06:39:12.249Z,13.30
2018-09-15T06:41:42.242Z,11.30
2018-09-15T06:44:11.970Z,12.43
2018-09-15T06:46:41.652Z,11.00
2018-09-15T06:49:13.361Z,14.07
2018-09-15T06:51:43.118Z,11.20
2018-09-15T06:54:12.859Z,10.43
2018-09-15T06:56:42.778Z,10.43
2018-09-15T06:59:13.098Z,18.60
2018-09-15T07:01:43.047Z,16.20
2018-09-15T07:04:13.713Z,15.23
2018-09-15T07:06:43.505Z,11.87
2018-09-15T07:09:14.280Z,12.77
2018-09-15T07:11:44.078Z,11.83
2018-09-15T07:14:13.889Z,11.30
2018-09-15T07:16:43.739Z,12.23
2018-09-15T07:19:13.486Z,8.60
2018-09-15T07:21:43.448Z,12.77
2018-09-15T07:24:13.789Z,12.47
2018-09-15T07:26:43.602Z,9.60
2018-09-15T07:29:13.398Z,8.57
2018-09-15T07:31:43.155Z,11.33
2018-09-15T07:34:12.978Z,10.77
2018-09-15T07:36:42.696Z,8.57
2018-09-15T07:39:12.857Z,7.97
2018-09-15T07:41:42.891Z,11.03
2018-09-15T07:44:12.763Z,9.43
2018-09-15T07:46:43.067Z,12.53
2018-09-15T07:49:12.881Z,13.47
2018-09-15T07:51:42.900Z,6.03
2018-09-15T07:54:13.419Z,6.47
2018-09-15T07:56:43.204Z,10.87
2018-09-15T07:59:13.022Z,6.70
2018-09-15T08:01:42.887Z,7.27
2018-09-15T08:04:12.774Z,7.03
2018-09-15T08:06:42.535Z,5.00
2018-09-15T08:09:12.328Z,6.47
2018-09-15T08:11:42.133Z,5.37
2018-09-15T08:14:12.095Z,6.33
2018-09-15T08:16:41.870Z,6.63
2018-09-15T08:19:11.763Z,4.67
2018-09-15T08:21:41.520Z,4.73
2018-09-15T08:24:11.219Z,5.93
2018-09-15T08:26:40.952Z,10.50
2018-09-15T08:29:10.608Z,7.83
2018-09-15T08:31:40.334Z,5.90
2018-09-15T08:34:10.067Z,6.13
2018-09-15T08:36:39.745Z,4.80
2018-09-15T08:39:10.262Z,6.40
2018-09-15T08:41:40.168Z,9.27
2018-09-15T08:44:09.841Z,7.37
2018-09-15T08:46:39.572Z,5.07
2018-09-15T08:49:09.782Z,7.10
2018-09-15T08:51:39.467Z,5.13
2018-09-15T08:54:09.435Z,5.47
2018-09-15T08:56:39.082Z,3.90
2018-09-15T08:59:09.116Z,5.73
2018-09-15T09:01:38.784Z,5.23
2018-09-15T09:04:08.551Z,5.80
2018-09-15T09:06:38.231Z,5.63
2018-09-15T09:09:10.180Z,6.67
2018-09-15T09:11:39.867Z,4.07
2018-09-15T09:14:09.539Z,5.63
2018-09-15T09:16:39.228Z,4.53
2018-09-15T09:19:09.267Z,6.43
2018-09-15T09:21:39.188Z,5.27
2018-09-15T09:24:08.831Z,6.27
2018-09-15T09:26:38.603Z,6.63
2018-09-15T09:29:08.249Z,6.17
2018-09-15T09:31:37.931Z,7.07
2018-09-15T09:34:07.712Z,7.63
2018-09-15T09:36:37.380Z,5.17
2018-09-15T09:39:13.246Z,5.23
2018-09-15T09:41:43.436Z,4.03
2018-09-15T09:44:13.143Z,3.57
2018-09-15T09:46:42.784Z,3.47
2018-09-15T09:49:12.492Z,5.33
2018-09-15T09:51:42.149Z,4.03
2018-09-15T09:54:12.200Z,4.70
2018-09-15T09:56:41.846Z,4.53
2018-09-15T09:59:11.552Z,3.07
2018-09-15T10:01:46.540Z,4.73
2018-09-15T10:04:16.309Z,8.70
2018-09-15T10:06:46.007Z,3.90
2018-09-15T10:09:15.689Z,5.47
2018-09-15T10:11:45.373Z,5.27
2018-09-15T10:14:15.100Z,4.17
2018-09-15T10:16:45.056Z,5.03
2018-09-15T10:19:14.819Z,4.70
2018-09-15T10:21:44.625Z,5.03
2018-09-15T10:24:14.327Z,6.97
2018-09-15T10:26:44.046Z,7.80
2018-09-15T10:29:13.826Z,5.80
2018-09-15T10:31:43.596Z,3.53
2018-09-15T10:34:13.435Z,2.90
2018-09-15T10:36:43.165Z,5.80
2018-09-15T10:39:13.134Z,2.90
2018-09-15T10:41:42.888Z,4.20
2018-09-15T10:44:12.672Z,3.10
2018-09-15T10:46:42.513Z,3.17
2018-09-15T10:49:12.323Z,4.07
2018-09-15T10:51:42.042Z,5.10
2018-09-15T10:54:11.736Z,3.83
2018-09-15T10:56:41.489Z,4.30
2018-09-15T10:59:11.223Z,5.30
2018-09-15T11:01:40.914Z,5.43
2018-09-15T11:04:10.653Z,3.97
2018-09-15T11:06:40.368Z,4.63
2018-09-15T11:09:10.991Z,4.20
2018-09-15T11:11:40.795Z,4.73
2018-09-15T11:14:10.708Z,7.43
2018-09-15T11:16:40.474Z,4.07
2018-09-15T11:19:10.277Z,4.80
2018-09-15T11:21:39.982Z,6.73
2018-09-15T11:24:09.708Z,6.50
2018-09-15T11:26:39.438Z,7.93
2018-09-15T11:29:09.242Z,4.67
2018-09-15T11:31:39.147Z,5.20
2018-09-15T11:34:09.065Z,7.23
2018-09-15T11:36:38.704Z,6.03
2018-09-15T11:39:10.582Z,6.43
2018-09-15T11:41:40.423Z,5.80
2018-09-15T11:44:10.167Z,4.63
2018-09-15T11:46:39.872Z,7.00
2018-09-15T11:49:09.633Z,4.43
2018-09-15T11:51:39.379Z,4.93
2018-09-15T11:54:09.176Z,10.57
2018-09-15T11:56:38.901Z,7.27
2018-09-15T11:59:08.668Z,7.00
2018-09-15T12:01:38.351Z,3.83
2018-09-15T12:04:08.042Z,4.53
2018-09-15T12:06:37.767Z,5.57
2018-09-15T12:09:09.125Z,6.97
2018-09-15T12:11:38.870Z,6.80
2018-09-15T12:14:08.673Z,5.67
2018-09-15T12:16:38.428Z,5.90
2018-09-15T12:19:08.175Z,6.67
2018-09-15T12:21:37.987Z,5.87
2018-09-15T12:24:08.009Z,5.30
2018-09-15T12:26:38.203Z,11.53
2018-09-15T12:29:07.981Z,7.13
2018-09-15T12:31:37.674Z,10.53
2018-09-15T12:34:07.444Z,8.90
2018-09-15T12:36:37.166Z,10.63
2018-09-15T12:39:08.975Z,8.43
2018-09-15T12:41:38.728Z,10.90
2018-09-15T12:44:08.405Z,9.53
2018-09-15T12:46:38.084Z,11.60
2018-09-15T12:49:07.733Z,13.30
2018-09-15T12:51:37.409Z,9.17
2018-09-15T12:54:07.583Z,11.78
2018-09-15T12:56:37.305Z,9.83
2018-09-15T12:59:07.042Z,8.57
2018-09-15T13:01:36.699Z,9.17
2018-09-15T13:04:06.424Z,10.28
2018-09-15T13:06:36.083Z,6.87
2018-09-15T13:09:09.193Z,8.03
2018-09-15T13:11:39.014Z,8.57
2018-09-15T13:14:09.021Z,8.97
2018-09-15T13:16:38.887Z,9.50
2018-09-15T13:19:08.629Z,10.70
2018-09-15T13:21:38.413Z,7.97
2018-09-15T13:24:09.591Z,8.70
2018-09-15T13:26:39.240Z,6.27
2018-09-15T13:29:08.906Z,8.37
2018-09-15T13:31:38.722Z,7.53
2018-09-15T13:34:08.412Z,6.50
2018-09-15T13:36:38.059Z,5.93
2018-09-15T13:39:10.114Z,9.20
2018-09-15T13:41:39.769Z,6.80
2018-09-15T13:44:09.663Z,8.18
2018-09-15T13:46:39.422Z,7.33
2018-09-15T13:49:09.070Z,8.13
2018-09-15T13:51:38.752Z,5.00
2018-09-15T13:54:08.627Z,6.53
2018-09-15T13:56:38.300Z,6.57
2018-09-15T13:59:08.061Z,7.33
2018-09-15T14:01:37.769Z,5.77
2018-09-15T14:04:07.610Z,5.23
2018-09-15T14:06:37.334Z,5.77
2018-09-15T14:09:08.796Z,4.13
2018-09-15T14:11:38.608Z,4.73
2018-09-15T14:14:08.516Z,5.83
2018-09-15T14:16:42.213Z,2.43
2018-09-15T14:19:12.020Z,3.27
2018-09-15T14:21:41.756Z,3.27
2018-09-15T14:24:11.792Z,3.33
2018-09-15T14:26:41.511Z,5.93
2018-09-15T14:29:11.225Z,2.07
2018-09-15T14:31:40.937Z,1.93
2018-09-15T14:34:10.638Z,2.30
2018-09-15T14:36:40.521Z,3.63
2018-09-15T14:39:11.687Z,3.73
2018-09-15T14:41:41.571Z,4.90
2018-09-15T14:44:11.670Z,2.90
2018-09-15T14:46:41.369Z,3.67
2018-09-15T14:49:11.118Z,4.20
2018-09-15T14:51:40.918Z,2.77
2018-09-15T14:54:10.637Z,3.80
2018-09-15T14:56:40.389Z,4.43
2018-09-15T14:59:10.425Z,2.13
2018-09-15T15:01:40.225Z,2.97
2018-09-15T15:04:09.976Z,2.90
2018-09-15T15:06:39.701Z,3.63
2018-09-15T15:09:09.983Z,3.53
2018-09-15T15:11:39.860Z,3.67
2018-09-15T15:14:10.004Z,2.70
2018-09-15T15:16:39.871Z,2.07
2018-09-15T15:19:10.249Z,3.47
2018-09-15T15:21:39.996Z,2.73
2018-09-15T15:24:09.847Z,2.90
2018-09-15T15:26:39.643Z,3.47
2018-09-15T15:29:09.881Z,2.27
2018-09-15T15:31:39.753Z,3.80
2018-09-15T15:34:09.416Z,4.00
2018-09-15T15:36:39.613Z,2.00
2018-09-15T15:39:10.179Z,1.70
2018-09-15T15:41:40.374Z,1.30
2018-09-15T15:44:10.362Z,4.50
2018-09-15T15:46:40.389Z,3.93
2018-09-15T15:49:10.526Z,2.13
2018-09-15T15:51:40.615Z,2.53
2018-09-15T15:54:10.500Z,5.20
2018-09-15T15:56:40.666Z,2.70
2018-09-15T15:59:10.681Z,4.47
2018-09-15T16:01:40.347Z,2.53
2018-09-15T16:04:11.319Z,3.37
2018-09-15T16:06:42.130Z,3.40
2018-09-15T16:09:12.016Z,3.90
2018-09-15T16:11:41.984Z,4.47
2018-09-15T16:14:12.520Z,6.97
2018-09-15T16:16:43.278Z,3.67
2018-09-15T16:19:13.508Z,3.17
2018-09-15T16:21:43.410Z,3.87
2018-09-15T16:24:14.358Z,3.67
2018-09-15T16:26:44.819Z,6.03
2018-09-15T16:29:14.540Z,3.87
2018-09-15T16:31:44.295Z,3.10
2018-09-15T16:34:14.076Z,3.80
2018-09-15T16:36:44.042Z,3.63
2018-09-15T16:39:13.866Z,3.67
2018-09-15T16:41:43.657Z,3.63
2018-09-15T16:44:13.528Z,4.53
2018-09-15T16:46:43.577Z,4.23
2018-09-15T16:49:13.597Z,2.00
2018-09-15T16:51:43.851Z,2.50
2018-09-15T16:54:13.934Z,3.07
2018-09-15T16:56:44.091Z,3.33
2018-09-15T16:59:32.313Z,4.10
2018-09-15T17:02:10.890Z,3.63
2018-09-15T17:04:42.693Z,2.53
2018-09-15T17:07:13.000Z,2.77
2018-09-15T17:09:43.597Z,7.33
2018-09-15T17:12:14.858Z,4.73
2018-09-15T17:14:45.229Z,4.03
2018-09-15T17:17:15.326Z,5.53
2018-09-15T17:19:45.343Z,6.33
2018-09-15T17:22:14.980Z,5.00
2018-09-15T17:24:44.661Z,10.77
2018-09-15T17:27:14.310Z,7.03
2018-09-15T17:29:43.980Z,5.57
2018-09-15T17:32:13.665Z,5.93
2018-09-15T17:34:43.339Z,7.47
2018-09-15T17:37:13.057Z,6.27
2018-09-15T17:39:42.706Z,4.27
2018-09-15T17:42:12.363Z,7.60
2018-09-15T17:44:42.112Z,6.97
2018-09-15T17:47:11.998Z,4.03
2018-09-15T17:49:41.694Z,4.37
2018-09-15T17:52:11.343Z,27.50
2018-09-15T17:54:41.023Z,8.67
2018-09-15T17:57:10.732Z,13.47
2018-09-15T17:59:40.401Z,4.27
2018-09-15T18:05:10.715Z,6.10
2018-09-15T18:07:40.641Z,5.67
2018-09-15T18:10:18.661Z,5.10
2018-09-15T18:12:48.402Z,4.07
2018-09-15T18:15:18.154Z,6.70
2018-09-15T18:17:47.869Z,7.70
2018-09-15T18:20:17.649Z,4.80
2018-09-15T18:22:47.479Z,10.63
2018-09-15T18:25:17.247Z,5.67
2018-09-15T18:27:46.986Z,5.83
2018-09-15T18:30:17.070Z,4.53
2018-09-15T18:32:46.789Z,7.53
2018-09-15T18:35:16.586Z,6.87
2018-09-15T18:37:49.156Z,6.20
2018-09-15T18:40:19.396Z,6.00
2018-09-15T18:42:49.896Z,5.03
2018-09-15T18:45:20.014Z,6.23
2018-09-15T18:47:50.574Z,6.10
2018-09-15T18:50:20.748Z,9.50
2018-09-15T18:52:50.931Z,3.77
2018-09-15T18:55:21.677Z,7.90
2018-09-15T18:57:52.791Z,4.10
2018-09-15T19:00:23.580Z,6.20
2018-09-15T19:02:53.835Z,5.33
2018-09-15T19:05:24.622Z,5.33
2018-09-15T19:07:54.872Z,4.40
2018-09-15T19:10:25.372Z,8.60
2018-09-15T19:12:55.517Z,4.27
2018-09-15T19:15:25.783Z,5.17
2018-09-15T19:17:56.185Z,4.77
2018-09-15T19:20:26.357Z,3.27
2018-09-15T19:22:56.625Z,5.07
2018-09-15T19:25:26.867Z,4.60
2018-09-15T19:27:57.106Z,7.30
2018-09-15T19:30:32.448Z,4.93
2018-09-15T19:33:02.655Z,4.20
2018-09-15T19:35:32.949Z,3.33
2018-09-15T19:38:03.261Z,5.70
2018-09-15T19:40:33.531Z,4.63
2018-09-15T19:43:04.384Z,7.83
2018-09-15T19:45:34.496Z,4.03
2018-09-15T19:48:04.724Z,5.83
2018-09-15T19:50:35.128Z,4.17
2018-09-15T19:53:05.598Z,4.03
2018-09-15T19:55:35.840Z,6.63
2018-09-15T19:58:06.397Z,5.13
2018-09-15T20:00:37.224Z,4.17
2018-09-15T20:03:07.685Z,7.97
2018-09-15T20:05:37.966Z,5.00
2018-09-15T20:08:08.543Z,5.77
2018-09-15T20:10:39.589Z,4.70
2018-09-15T20:13:09.772Z,4.10
2018-09-15T20:15:38.162Z,5.00
2018-09-15T20:18:06.743Z,4.83
2018-09-15T20:20:35.030Z,4.67
2018-09-15T20:23:04.820Z,6.03
2018-09-15T20:25:34.587Z,4.70
2018-09-15T20:28:04.384Z,5.03
2018-09-15T20:30:34.100Z,4.73
2018-09-15T20:33:04.154Z,3.80
2018-09-15T20:35:33.828Z,4.47
2018-09-15T20:38:04.525Z,2.30
2018-09-15T20:40:34.331Z,1.97
2018-09-15T20:43:04.136Z,3.17
2018-09-15T20:45:33.927Z,3.27
2018-09-15T20:48:03.724Z,2.47
2018-09-15T20:50:33.729Z,3.13
2018-09-15T20:53:03.879Z,2.57
2018-09-15T20:55:33.584Z,2.63
2018-09-15T20:58:03.310Z,5.33
2018-09-15T21:00:33.039Z,2.57
2018-09-15T21:03:02.864Z,2.93
2018-09-15T21:05:32.601Z,3.20
2018-09-15T21:08:02.340Z,2.80
2018-09-15T21:10:32.118Z,3.00
2018-09-15T21:13:01.851Z,3.50
2018-09-15T21:15:31.544Z,2.30
2018-09-15T21:18:01.306Z,2.90
2018-09-15T21:20:31.091Z,4.77
2018-09-15T21:23:00.798Z,3.27
2018-09-15T21:25:30.544Z,3.30
2018-09-15T21:28:00.503Z,4.70
2018-09-15T21:30:30.248Z,4.30
2018-09-15T21:33:00.040Z,6.60
2018-09-15T21:35:30.190Z,6.20
2018-09-15T21:37:59.989Z,5.37
2018-09-15T21:40:30.186Z,3.60
2018-09-15T21:43:00.309Z,3.17
2018-09-15T21:45:30.042Z,4.93
2018-09-15T21:47:59.824Z,2.40
2018-09-15T21:50:29.554Z,2.07
2018-09-15T21:52:59.784Z,5.03
2018-09-15T21:55:29.858Z,3.33
2018-09-15T21:57:59.520Z,3.33
2018-09-15T22:00:29.385Z,3.23
2018-09-15T22:02:59.325Z,3.57
2018-09-15T22:05:29.112Z,3.80
2018-09-15T22:07:58.801Z,2.67
2018-09-15T22:10:28.821Z,3.37
2018-09-15T22:12:58.598Z,3.57
2018-09-15T22:15:28.975Z,3.03
2018-09-15T22:17:59.374Z,3.30
2018-09-15T22:20:30.068Z,3.90
2018-09-15T22:23:00.036Z,2.60
2018-09-15T22:25:29.847Z,5.30
2018-09-15T22:27:59.718Z,3.60
2018-09-15T22:30:29.607Z,3.70
2018-09-15T22:32:59.595Z,3.10
2018-09-15T22:35:29.387Z,3.90
2018-09-15T22:37:59.212Z,1.93
2018-09-15T22:40:28.918Z,1.97
2018-09-15T22:42:59.911Z,1.83
2018-09-15T22:45:29.691Z,2.57
2018-09-15T22:47:59.790Z,4.00
2018-09-15T22:50:29.548Z,5.30
2018-09-15T22:52:59.303Z,3.07
2018-09-15T22:55:30.007Z,5.43
2018-09-15T22:57:59.830Z,3.43
2018-09-15T23:00:29.573Z,6.30
2018-09-15T23:02:59.377Z,3.30
2018-09-15T23:05:29.311Z,3.50
2018-09-15T23:07:59.038Z,4.73
2018-09-15T23:10:28.834Z,3.20
2018-09-15T23:12:58.549Z,3.90
2018-09-15T23:15:28.285Z,2.60
2018-09-15T23:17:58.154Z,4.70
2018-09-15T23:20:28.001Z,3.27
2018-09-15T23:22:58.195Z,5.67
2018-09-15T23:25:28.301Z,4.67
2018-09-15T23:27:58.124Z,2.40
2018-09-15T23:30:27.878Z,2.43
2018-09-15T23:32:57.582Z,4.20
2018-09-15T23:35:27.301Z,2.43
2018-09-15T23:37:57.528Z,3.43
2018-09-15T23:40:27.362Z,2.27
2018-09-15T23:42:57.092Z,3.47
2018-09-15T23:45:26.845Z,4.67
2018-09-15T23:47:56.614Z,4.33
2018-09-15T23:50:26.407Z,3.97
2018-09-15T23:52:56.172Z,2.67
2018-09-15T23:55:25.939Z,6.43
2018-09-15T23:57:56.150Z,3.43
